createdAt,value
2023-05-06T00:02:05.735Z,101053.91
2023-05-06T00:04:35.245Z,101055.53
2023-05-06T00:07:06.497Z,101047.75
2023-05-06T00:09:37.544Z,101033.97
2023-05-06T00:12:08.506Z,101055.38
2023-05-06T00:14:38.501Z,101039.06
2023-05-06T00:17:11.793Z,101044.16
2023-05-06T00:19:41.427Z,101050.09
2023-05-06T00:22:09.795Z,101037.94
2023-05-06T00:24:41.537Z,101030.97
2023-05-06T00:27:12.512Z,101045.56
2023-05-06T00:29:46.160Z,101029.16
2023-05-06T00:32:16.575Z,101041.19
2023-05-06T00:34:45.218Z,101045.44
2023-05-06T00:37:17.016Z,101047.94
2023-05-06T00:39:45.421Z,101038.44
2023-05-06T00:42:19.565Z,101042.66
2023-05-06T00:44:52.198Z,101063.06
2023-05-06T00:47:26.131Z,101038.91
2023-05-06T00:49:54.804Z,101050.94
2023-05-06T00:52:23.591Z,101040.56
2023-05-06T00:54:52.201Z,101039.69
2023-05-06T00:57:24.778Z,101056.75
2023-05-06T00:59:53.458Z,101037.88
2023-05-06T01:02:26.243Z,101048.94
2023-05-06T01:04:56.739Z,101054.06
2023-05-06T01:07:39.383Z,101038.44
2023-05-06T01:10:23.474Z,101054.75
2023-05-06T01:13:03.332Z,101059.00
2023-05-06T01:15:38.067Z,101057.19
2023-05-06T01:18:13.419Z,101059.63
2023-05-06T01:20:44.619Z,101074.22
2023-05-06T01:23:16.753Z,101057.03
2023-05-06T01:25:47.576Z,101059.53
2023-05-06T01:28:16.328Z,101066.31
2023-05-06T01:30:51.726Z,101069.63
2023-05-06T01:33:29.094Z,101077.31
2023-05-06T01:36:07.828Z,101091.00
2023-05-06T01:38:48.313Z,101076.44
2023-05-06T01:41:19.427Z,101078.09
2023-05-06T01:43:52.997Z,101065.13
2023-05-06T01:46:23.340Z,101079.75
2023-05-06T01:48:56.920Z,101080.59
2023-05-06T01:51:25.215Z,101086.56
2023-05-06T01:53:58.795Z,101079.69
2023-05-06T01:56:30.264Z,101065.84
2023-05-06T01:59:00.437Z,101074.47
2023-05-06T02:01:35.656Z,101068.34
2023-05-06T02:04:04.755Z,101071.78
2023-05-06T02:06:33.507Z,101066.63
2023-05-06T02:09:05.620Z,101050.97
2023-05-06T02:11:35.397Z,101062.88
2023-05-06T02:14:07.195Z,101078.44
2023-05-06T02:16:35.341Z,101060.38
2023-05-06T02:19:03.689Z,101057.81
2023-05-06T02:21:32.578Z,101072.28
2023-05-06T02:24:15.480Z,101052.53
2023-05-06T02:26:43.648Z,101055.84
2023-05-06T02:29:13.044Z,101046.34
2023-05-06T02:31:41.157Z,101061.81
2023-05-06T02:34:10.468Z,101069.44
2023-05-06T02:36:40.734Z,101051.41
2023-05-06T02:39:12.807Z,101040.09
2023-05-06T02:41:41.279Z,101035.06
2023-05-06T02:44:09.249Z,101046.19
2023-05-06T02:46:37.429Z,101040.16
2023-05-06T02:49:05.596Z,101038.44
2023-05-06T02:51:35.306Z,101040.94
2023-05-06T02:54:06.476Z,101030.59
2023-05-06T02:56:37.230Z,101040.84
2023-05-06T02:59:06.041Z,101043.34
2023-05-06T03:01:34.677Z,101032.38
2023-05-06T03:04:03.795Z,101035.66
2023-05-06T03:06:33.985Z,101047.75
2023-05-06T03:09:02.112Z,101034.81
2023-05-06T03:11:31.693Z,101041.66
2023-05-06T03:14:02.329Z,101049.41
2023-05-06T03:16:30.883Z,101061.41
2023-05-06T03:18:59.893Z,101064.06
2023-05-06T03:21:29.976Z,101059.94
2023-05-06T03:23:59.621Z,101066.94
2023-05-06T03:26:27.776Z,101065.34
2023-05-06T03:28:56.318Z,101056.75
2023-05-06T03:31:27.732Z,101057.75
2023-05-06T03:33:56.622Z,101064.66
2023-05-06T03:36:25.570Z,101046.63
2023-05-06T03:38:54.772Z,101062.22
2023-05-06T03:41:26.664Z,101059.69
2023-05-06T03:43:56.650Z,101070.09
2023-05-06T03:46:26.817Z,101073.63
2023-05-06T03:48:55.701Z,101065.06
2023-05-06T03:51:23.965Z,101064.22
2023-05-06T03:53:54.907Z,101065.06
2023-05-06T03:56:30.589Z,101075.41
2023-05-06T03:58:58.826Z,101072.97
2023-05-06T04:01:30.215Z,101063.56
2023-05-06T04:03:59.400Z,101074.69
2023-05-06T04:06:31.225Z,101067.84
2023-05-06T04:08:59.358Z,101066.97
2023-05-06T04:11:29.875Z,101063.50
2023-05-06T04:13:58.664Z,101065.28
2023-05-06T04:16:28.179Z,101064.44
2023-05-06T04:19:06.803Z,101053.25
2023-05-06T04:21:38.633Z,101057.53
2023-05-06T04:24:07.933Z,101049.97
2023-05-06T04:26:38.837Z,101050.88
2023-05-06T04:29:08.998Z,101050.03
2023-05-06T04:31:38.686Z,101058.53
2023-05-06T04:34:10.896Z,101055.16
2023-05-06T04:36:40.772Z,101063.75
2023-05-06T04:39:10.547Z,101065.41
2023-05-06T04:41:39.243Z,101062.78
2023-05-06T04:44:08.260Z,101058.44
2023-05-06T04:46:37.818Z,101063.50
2023-05-06T04:49:07.739Z,101065.22
2023-05-06T04:51:36.205Z,101062.56
2023-05-06T04:54:04.761Z,101058.38
2023-05-06T04:56:35.796Z,101062.78
2023-05-06T04:59:04.012Z,101049.78
2023-05-06T05:01:32.877Z,101058.63
2023-05-06T05:04:01.854Z,101056.13
2023-05-06T05:06:34.585Z,101051.00
2023-05-06T05:09:17.410Z,101050.22
2023-05-06T05:11:53.246Z,101049.44
2023-05-06T05:14:21.669Z,101039.13
2023-05-06T05:16:54.574Z,101056.31
2023-05-06T05:19:22.929Z,101050.41
2023-05-06T05:21:55.062Z,101055.66
2023-05-06T05:24:26.610Z,101044.59
2023-05-06T05:26:57.801Z,101044.75
2023-05-06T05:29:32.125Z,101044.84
2023-05-06T05:32:01.882Z,101048.31
2023-05-06T05:34:37.743Z,101029.38
2023-05-06T05:37:15.069Z,101044.91
2023-05-06T05:39:44.400Z,101038.91
2023-05-06T05:42:12.437Z,101041.53
2023-05-06T05:44:43.245Z,101034.69
2023-05-06T05:47:14.516Z,101038.16
2023-05-06T05:49:42.909Z,101018.47
2023-05-06T05:52:12.957Z,101025.38
2023-05-06T05:54:41.428Z,101032.38
2023-05-06T05:57:09.877Z,101035.00
2023-05-06T05:59:39.479Z,101020.59
2023-05-06T06:02:07.869Z,101019.94
2023-05-06T06:04:39.074Z,101019.22
2023-05-06T06:07:08.249Z,101020.13
2023-05-06T06:09:47.445Z,101008.94
2023-05-06T06:12:16.300Z,101027.06
2023-05-06T06:14:48.411Z,101002.22
2023-05-06T06:17:18.209Z,101022.06
2023-05-06T06:19:48.030Z,101019.59
2023-05-06T06:22:16.874Z,101014.50
2023-05-06T06:24:48.659Z,101021.50
2023-05-06T06:27:20.325Z,101021.56
2023-05-06T06:29:49.295Z,101025.03
2023-05-06T06:32:23.087Z,101001.91
2023-05-06T06:34:51.541Z,101027.88
2023-05-06T06:37:20.433Z,101010.81
2023-05-06T06:39:50.142Z,101014.31
2023-05-06T06:42:18.444Z,101013.50
2023-05-06T06:44:48.256Z,101022.16
2023-05-06T06:47:17.537Z,101017.00
2023-05-06T06:49:46.081Z,101016.28
2023-05-06T06:52:14.408Z,101019.81
2023-05-06T06:54:42.549Z,101013.84
2023-05-06T06:57:12.461Z,101008.72
2023-05-06T06:59:41.821Z,101012.22
2023-05-06T07:02:10.273Z,101004.59
2023-05-06T07:04:43.319Z,100998.63
2023-05-06T07:07:14.617Z,100999.53
2023-05-06T07:09:55.433Z,100987.50
2023-05-06T07:12:27.150Z,100995.22
2023-05-06T07:14:55.691Z,100990.13
2023-05-06T07:17:24.679Z,100984.97
2023-05-06T07:19:56.073Z,100989.25
2023-05-06T07:22:26.810Z,100989.22
2023-05-06T07:24:59.295Z,100966.88
2023-05-06T07:27:30.724Z,100979.78
2023-05-06T07:29:59.093Z,100984.91
2023-05-06T07:32:27.789Z,100980.56
2023-05-06T07:34:56.743Z,100972.81
2023-05-06T07:37:25.117Z,100973.69
2023-05-06T07:39:53.667Z,100965.09
2023-05-06T07:42:23.584Z,100973.69
2023-05-06T07:44:54.219Z,100979.75
2023-05-06T07:47:30.911Z,100974.59
2023-05-06T07:50:02.056Z,100960.03
2023-05-06T07:52:30.224Z,100966.03
2023-05-06T07:54:59.332Z,100972.91
2023-05-06T07:57:28.505Z,100977.22
2023-05-06T07:59:58.566Z,100958.31
2023-05-06T08:02:28.112Z,100969.50
2023-05-06T08:04:57.320Z,100978.13
2023-05-06T08:07:34.634Z,100970.41
2023-05-06T08:10:02.975Z,100979.00
2023-05-06T08:12:31.895Z,100972.97
2023-05-06T08:15:01.802Z,100968.69
2023-05-06T08:17:34.706Z,100981.56
2023-05-06T08:20:03.418Z,100963.50
2023-05-06T08:22:34.882Z,100980.69
2023-05-06T08:25:04.860Z,100972.09
2023-05-06T08:27:35.557Z,100955.75
2023-05-06T08:30:06.181Z,100975.56
2023-05-06T08:32:36.626Z,100965.25
2023-05-06T08:35:05.481Z,100973.84
2023-05-06T08:37:36.525Z,100971.25
2023-05-06T08:40:05.585Z,100962.69
2023-05-06T08:42:38.237Z,100970.44
2023-05-06T08:45:22.792Z,100968.72
2023-05-06T08:47:51.385Z,100964.41
2023-05-06T08:50:22.231Z,100959.25
2023-05-06T08:52:52.815Z,100967.00
2023-05-06T08:55:28.987Z,100964.44
2023-05-06T08:57:58.718Z,100960.97
2023-05-06T09:00:35.013Z,100961.84
2023-05-06T09:03:03.125Z,100962.72
2023-05-06T09:05:31.515Z,100963.56
2023-05-06T09:08:00.019Z,100967.00
2023-05-06T09:10:33.646Z,100991.94
2023-05-06T09:13:01.941Z,100950.66
2023-05-06T09:15:44.501Z,100978.19
2023-05-06T09:18:13.021Z,100966.13
2023-05-06T09:20:43.472Z,100959.25
2023-05-06T09:23:13.044Z,100973.88
2023-05-06T09:25:41.201Z,100960.09
2023-05-06T09:28:12.761Z,100942.06
2023-05-06T09:30:47.941Z,100959.25
2023-05-06T09:33:22.720Z,100955.84
2023-05-06T09:35:51.624Z,100950.66
2023-05-06T09:38:21.573Z,100933.47
2023-05-06T09:40:52.103Z,100950.66
2023-05-06T09:43:21.348Z,100936.03
2023-05-06T09:46:01.632Z,100944.66
2023-05-06T09:48:33.124Z,100930.91
2023-05-06T09:51:06.823Z,100941.19
2023-05-06T09:53:38.384Z,100943.78
2023-05-06T09:56:12.329Z,100943.78
2023-05-06T09:58:45.384Z,100946.34
2023-05-06T10:01:32.447Z,100916.25
2023-05-06T10:04:08.357Z,100950.66
2023-05-06T10:06:39.552Z,100932.59
2023-05-06T10:09:09.337Z,100929.16
2023-05-06T10:11:40.090Z,100950.69
2023-05-06T10:14:13.895Z,100936.88
2023-05-06T10:16:49.803Z,100930.00
2023-05-06T10:19:24.466Z,100931.75
2023-05-06T10:21:58.390Z,100919.72
2023-05-06T10:24:34.981Z,100924.00
2023-05-06T10:27:09.644Z,100923.16
2023-05-06T10:29:43.353Z,100919.69
2023-05-06T10:32:14.058Z,100909.38
2023-05-06T10:34:53.899Z,100905.09
2023-05-06T10:37:26.217Z,100911.09
2023-05-06T10:39:57.544Z,100900.78
2023-05-06T10:42:29.103Z,100902.53
2023-05-06T10:45:06.689Z,100893.03
2023-05-06T10:48:15.169Z,100910.25
2023-05-06T10:50:44.578Z,100895.63
2023-05-06T10:53:14.588Z,100893.06
2023-05-06T10:55:45.686Z,100901.66
2023-05-06T10:58:16.490Z,100900.78
2023-05-06T11:00:55.224Z,100894.78
2023-05-06T11:03:26.164Z,100878.44
2023-05-06T11:05:54.950Z,100887.91
2023-05-06T11:08:29.385Z,100884.47
2023-05-06T11:11:01.452Z,100877.59
2023-05-06T11:13:31.099Z,100877.59
2023-05-06T11:16:00.424Z,100881.03
2023-05-06T11:18:48.059Z,100875.00
2023-05-06T11:21:43.481Z,100888.75
2023-05-06T11:24:15.630Z,100884.47
2023-05-06T11:26:45.595Z,100882.72
2023-05-06T11:29:18.954Z,100877.56
2023-05-06T11:31:48.605Z,100874.13
2023-05-06T11:34:23.759Z,100887.88
2023-05-06T11:37:01.394Z,100872.41
2023-05-06T11:39:33.436Z,100888.75
2023-05-06T11:42:09.130Z,100893.06
2023-05-06T11:44:39.525Z,100874.13
2023-05-06T11:47:10.789Z,100878.44
2023-05-06T11:49:44.599Z,100883.59
2023-05-06T11:52:15.153Z,100900.78
2023-05-06T11:54:45.812Z,100892.22
2023-05-06T11:57:15.340Z,100892.22
2023-05-06T11:59:46.554Z,100894.75
2023-05-06T12:02:17.357Z,100894.75
2023-05-06T12:04:50.177Z,100887.91
2023-05-06T12:07:21.654Z,100875.88
2023-05-06T12:09:52.192Z,100898.19
2023-05-06T12:12:23.417Z,100897.38
2023-05-06T12:14:54.157Z,100896.50
2023-05-06T12:17:27.615Z,100902.53
2023-05-06T12:19:58.167Z,100893.91
2023-05-06T12:22:26.469Z,100903.38
2023-05-06T12:24:55.516Z,100896.50
2023-05-06T12:27:36.137Z,100895.63
2023-05-06T12:30:06.680Z,100905.06
2023-05-06T12:32:37.029Z,100901.63
2023-05-06T12:35:09.664Z,100903.34
2023-05-06T12:37:39.063Z,100900.75
2023-05-06T12:40:19.574Z,100908.47
2023-05-06T12:42:55.661Z,100906.72
2023-05-06T12:45:26.040Z,100901.59
2023-05-06T12:47:56.777Z,100904.16
2023-05-06T12:50:37.338Z,100890.34
2023-05-06T12:53:07.831Z,100904.94
2023-05-06T12:55:38.058Z,100876.50
2023-05-06T12:58:17.816Z,100876.50
2023-05-06T13:00:47.852Z,100887.69
2023-05-06T13:03:19.613Z,100895.41
2023-05-06T13:05:53.605Z,100886.84
2023-05-06T13:08:23.619Z,100875.66
2023-05-06T13:10:53.065Z,100891.97
2023-05-06T13:13:21.742Z,100880.78
2023-05-06T13:15:52.675Z,100868.72
2023-05-06T13:18:21.378Z,100883.38
2023-05-06T13:20:54.841Z,100885.91
2023-05-06T13:23:22.911Z,100875.63
2023-05-06T13:26:03.369Z,100865.28
2023-05-06T13:28:35.721Z,100881.59
2023-05-06T13:31:06.779Z,100883.31
2023-05-06T13:33:36.184Z,100874.69
2023-05-06T13:36:10.093Z,100872.06
2023-05-06T13:38:40.066Z,100870.34
2023-05-06T13:41:09.234Z,100866.94
2023-05-06T13:43:37.565Z,100862.59
2023-05-06T13:46:05.980Z,100863.44
2023-05-06T13:48:34.741Z,100866.84
2023-05-06T13:51:03.153Z,100859.94
2023-05-06T13:53:37.241Z,100838.41
2023-05-06T13:56:06.349Z,100838.41
2023-05-06T13:58:36.355Z,100839.25
2023-05-06T14:01:06.189Z,100829.78
2023-05-06T14:03:43.363Z,100824.59
2023-05-06T14:06:17.201Z,100809.06
2023-05-06T14:08:46.962Z,100829.66
2023-05-06T14:11:18.069Z,100818.47
2023-05-06T14:13:46.362Z,100798.69
2023-05-06T14:16:18.309Z,100814.94
2023-05-06T14:18:46.632Z,100793.47
2023-05-06T14:21:18.017Z,100800.31
2023-05-06T14:23:48.198Z,100795.94
2023-05-06T14:26:17.021Z,100791.56
2023-05-06T14:28:48.955Z,100802.69
2023-05-06T14:31:18.303Z,100796.63
2023-05-06T14:33:47.775Z,100782.91
2023-05-06T14:36:20.559Z,100791.41
2023-05-06T14:38:50.468Z,100792.19
2023-05-06T14:41:18.928Z,100799.91
2023-05-06T14:43:47.687Z,100801.59
2023-05-06T14:46:18.003Z,100793.88
2023-05-06T14:48:47.314Z,100799.88
2023-05-06T14:51:15.736Z,100799.88
2023-05-06T14:53:46.938Z,100793.84
2023-05-06T14:56:17.315Z,100799.81
2023-05-06T14:58:46.306Z,100795.47
2023-05-06T15:01:15.749Z,100791.09
2023-05-06T15:03:45.527Z,100804.91
2023-05-06T15:06:14.081Z,100797.19
2023-05-06T15:08:42.895Z,100798.03
2023-05-06T15:11:11.704Z,100791.09
2023-05-06T15:13:41.999Z,100805.66
2023-05-06T15:16:11.610Z,100807.34
2023-05-06T15:18:41.919Z,100806.47
2023-05-06T15:21:11.433Z,100809.03
2023-05-06T15:23:39.964Z,100810.75
2023-05-06T15:26:08.084Z,100807.22
2023-05-06T15:28:37.697Z,100817.59
2023-05-06T15:31:09.015Z,100813.34
2023-05-06T15:33:38.030Z,100821.91
2023-05-06T15:36:08.055Z,100823.63
2023-05-06T15:39:00.152Z,100824.47
2023-05-06T15:41:34.318Z,100828.75
2023-05-06T15:44:06.526Z,100823.56
2023-05-06T15:46:36.516Z,100824.34
2023-05-06T15:51:38.347Z,100833.81
2023-05-06T15:54:07.076Z,100835.47
2023-05-06T15:56:40.731Z,100828.63
2023-05-06T15:59:09.365Z,100843.25
2023-05-06T16:02:08.449Z,100840.66
2023-05-06T16:04:29.805Z,100845.72
2023-05-06T16:06:59.158Z,100846.50
2023-05-06T16:09:27.870Z,100834.44
2023-05-06T16:11:58.295Z,100847.34
2023-05-06T16:14:27.274Z,100853.34
2023-05-06T16:17:07.998Z,100843.88
2023-05-06T16:19:36.518Z,100855.00
2023-05-06T16:22:06.552Z,100862.72
2023-05-06T16:24:35.318Z,100859.25
2023-05-06T16:27:05.553Z,100873.00
2023-05-06T16:29:34.044Z,100873.88
2023-05-06T16:32:04.306Z,100870.44
2023-05-06T16:34:33.376Z,100872.13
2023-05-06T16:37:02.209Z,100862.56
2023-05-06T16:39:33.684Z,100883.28
2023-05-06T16:42:04.455Z,100891.78
2023-05-06T16:44:33.382Z,100884.94
2023-05-06T16:47:02.504Z,100893.50
2023-05-06T16:49:34.280Z,100892.59
2023-05-06T16:52:02.407Z,100895.13
2023-05-06T16:54:44.073Z,100900.22
2023-05-06T16:57:13.453Z,100885.66
2023-05-06T16:59:43.249Z,100884.78
2023-05-06T17:02:12.037Z,100864.09
2023-05-06T17:04:44.049Z,100869.25
2023-05-06T17:07:14.004Z,100885.59
2023-05-06T17:09:46.186Z,100880.47
2023-05-06T17:12:15.721Z,100885.56
2023-05-06T17:14:44.816Z,100884.59
2023-05-06T17:17:16.727Z,100868.22
2023-05-06T17:19:54.713Z,100885.38
2023-05-06T17:22:28.566Z,100884.50
2023-05-06T17:24:57.875Z,100867.19
2023-05-06T17:27:26.567Z,100876.75
2023-05-06T17:29:54.944Z,100866.44
2023-05-06T17:32:25.008Z,100879.22
2023-05-06T17:34:59.234Z,100868.94
2023-05-06T17:37:27.945Z,100858.44
2023-05-06T17:39:59.927Z,100877.38
2023-05-06T17:42:29.526Z,100866.22
2023-05-06T17:44:58.311Z,100872.25
2023-05-06T17:47:32.116Z,100883.38
2023-05-06T17:50:02.411Z,100879.91
2023-05-06T17:52:31.248Z,100892.78
2023-05-06T17:55:15.682Z,100894.41
2023-05-06T17:57:45.413Z,100902.13
2023-05-06T18:00:15.307Z,100907.25
2023-05-06T18:02:45.662Z,100908.94
2023-05-06T18:05:15.970Z,100893.41
2023-05-06T18:07:47.110Z,100900.38
2023-05-06T18:10:18.731Z,100904.75
2023-05-06T18:12:48.869Z,100902.94
2023-05-06T18:15:19.071Z,100902.19
2023-05-06T18:17:48.153Z,100901.31
2023-05-06T18:20:20.547Z,100906.50
2023-05-06T18:22:51.119Z,100912.56
2023-05-06T18:25:20.255Z,100909.03
2023-05-06T18:27:50.691Z,100906.41
2023-05-06T18:30:18.996Z,100914.19
2023-05-06T18:32:52.237Z,100914.22
2023-05-06T18:35:31.514Z,100913.28
2023-05-06T18:38:00.023Z,100925.31
2023-05-06T18:40:28.416Z,100917.50
2023-05-06T18:43:00.337Z,100925.19
2023-05-06T18:45:31.801Z,100923.47
2023-05-06T18:48:02.276Z,100920.00
2023-05-06T18:50:32.523Z,100927.69
2023-05-06T18:53:01.605Z,100918.19
2023-05-06T18:55:30.544Z,100925.94
2023-05-06T18:57:58.853Z,100924.16
2023-05-06T19:00:30.928Z,100914.81
2023-05-06T19:03:00.290Z,100913.84
2023-05-06T19:05:28.822Z,100916.41
2023-05-06T19:07:59.635Z,100915.50
2023-05-06T19:10:27.664Z,100909.41
2023-05-06T19:12:56.242Z,100914.59
2023-05-06T19:15:28.653Z,100912.03
2023-05-06T19:17:57.493Z,100917.22
2023-05-06T19:20:25.936Z,100923.19
2023-05-06T19:23:20.426Z,100873.91
2023-05-06T19:25:48.736Z,100921.41
2023-05-06T19:28:17.064Z,100893.78
2023-05-06T19:30:45.773Z,100916.22
2023-05-06T19:33:14.375Z,100885.19
2023-05-06T19:35:45.626Z,100900.66
2023-05-06T19:38:14.475Z,100904.09
2023-05-06T19:40:45.786Z,100895.56
2023-05-06T19:43:17.893Z,100895.47
2023-05-06T19:45:46.081Z,100880.72
2023-05-06T19:48:14.907Z,100899.63
2023-05-06T19:50:45.922Z,100878.03
2023-05-06T19:53:15.258Z,100891.03
2023-05-06T19:55:44.951Z,100904.81
2023-05-06T19:58:14.305Z,100909.03
2023-05-06T20:00:43.963Z,100900.50
2023-05-06T20:03:12.508Z,100900.44
2023-05-06T20:05:40.851Z,100902.97
2023-05-06T20:08:11.012Z,100906.34
2023-05-06T20:10:40.981Z,100903.84
2023-05-06T20:13:12.041Z,100908.13
2023-05-06T20:15:43.386Z,100913.38
2023-05-06T20:18:12.358Z,100897.00
2023-05-06T20:20:41.468Z,100915.13
2023-05-06T20:23:10.334Z,100914.22
2023-05-06T20:25:43.131Z,100914.22
2023-05-06T20:28:12.846Z,100916.84
2023-05-06T20:30:41.900Z,100914.19
2023-05-06T20:33:13.788Z,100910.66
2023-05-06T20:35:46.004Z,100916.63
2023-05-06T20:38:18.977Z,100914.09
2023-05-06T20:40:51.054Z,100911.53
2023-05-06T20:43:21.218Z,100908.88
2023-05-06T20:49:15.920Z,100919.19
2023-05-06T20:51:46.337Z,100872.78
2023-05-06T20:54:28.421Z,100851.06
2023-05-06T20:57:03.407Z,100874.34
2023-05-06T21:03:18.110Z,100859.78
2023-05-06T21:09:10.668Z,100925.25
2023-05-06T21:11:38.462Z,100912.50
2023-05-06T21:14:06.257Z,100910.78
2023-05-06T21:16:35.312Z,100915.97
2023-05-06T21:19:03.090Z,100912.56
2023-05-06T21:21:32.501Z,100921.97
2023-05-06T21:24:00.360Z,100916.78
2023-05-06T21:26:28.263Z,100925.38
2023-05-06T21:28:56.092Z,100929.56
2023-05-06T21:31:25.218Z,100921.00
2023-05-06T21:33:56.450Z,100919.25
2023-05-06T21:36:24.263Z,100909.81
2023-05-06T21:39:01.245Z,100912.38
2023-05-06T21:41:29.327Z,100911.47
2023-05-06T21:43:57.184Z,100918.28
2023-05-06T21:46:25.111Z,100916.53
2023-05-06T21:48:54.271Z,100920.78
2023-05-06T21:51:21.997Z,100923.28
2023-05-06T21:53:50.419Z,100918.16
2023-05-06T21:56:18.509Z,100916.44
2023-05-06T21:58:46.422Z,100915.53
2023-05-06T22:01:14.407Z,100914.59
2023-05-06T22:03:42.448Z,100912.84
2023-05-06T22:06:11.898Z,100912.03
2023-05-06T22:08:40.124Z,100913.69
2023-05-06T22:11:08.156Z,100918.78
2023-05-06T22:13:36.253Z,100905.06
2023-05-06T22:16:04.398Z,100909.22
2023-05-06T22:18:32.321Z,100910.91
2023-05-06T22:21:00.581Z,100914.28
2023-05-06T22:23:29.771Z,100913.47
2023-05-06T22:25:58.576Z,100910.06
2023-05-06T22:28:27.555Z,100912.69
2023-05-06T22:30:55.435Z,100913.56
2023-05-06T22:33:23.463Z,100912.69
2023-05-06T22:35:51.308Z,100918.59
2023-05-06T22:38:19.244Z,100915.06
2023-05-06T22:40:48.425Z,100915.91
2023-05-06T22:43:16.313Z,100920.22
2023-05-06T22:45:44.239Z,100912.53
2023-05-06T22:48:12.208Z,100915.06
2023-05-06T22:50:40.117Z,100913.34
2023-05-06T22:53:14.857Z,100904.72
2023-05-06T22:55:43.698Z,100908.91
2023-05-06T22:58:12.997Z,100914.84
2023-05-06T23:00:41.074Z,100917.41
2023-05-06T23:03:09.114Z,100914.00
2023-05-06T23:05:37.018Z,100911.38
2023-05-06T23:08:05.083Z,100922.44
2023-05-06T23:10:33.009Z,100917.38
2023-05-06T23:13:02.033Z,100907.16
2023-05-06T23:15:31.387Z,100920.94
2023-05-06T23:17:59.307Z,100920.09
2023-05-06T23:20:27.247Z,100922.66
2023-05-06T23:22:55.073Z,100926.13
2023-05-06T23:25:23.016Z,100923.59
2023-05-06T23:27:50.790Z,100927.81
2023-05-06T23:30:18.665Z,100929.56
2023-05-06T23:32:48.568Z,100932.09
2023-05-06T23:35:16.423Z,100936.38
2023-05-06T23:37:44.320Z,100940.63
2023-05-06T23:40:14.035Z,100941.47
2023-05-06T23:42:41.916Z,100935.50
2023-05-06T23:45:11.784Z,100937.22
2023-05-06T23:47:39.841Z,100944.84
2023-05-06T23:50:09.875Z,100938.00
2023-05-06T23:52:38.305Z,100935.44
2023-05-06T23:55:07.321Z,100947.41
2023-05-06T23:57:35.127Z,100949.94
